createdAt,value
2017-01-21T00:00:28.794Z,0
2017-01-21T00:01:39.092Z,0
2017-01-21T00:02:49.478Z,0
2017-01-21T00:03:59.370Z,0
2017-01-21T00:05:09.236Z,0
2017-01-21T00:06:19.505Z,0
2017-01-21T00:07:29.895Z,0
2017-01-21T00:08:40.174Z,0
2017-01-21T00:09:49.646Z,0
2017-01-21T00:10:59.917Z,0
2017-01-21T00:12:09.386Z,0
2017-01-21T00:13:19.269Z,0
2017-01-21T00:14:29.563Z,0
2017-01-21T00:15:39.435Z,0
2017-01-21T00:16:49.745Z,0
2017-01-21T00:17:59.615Z,0
2017-01-21T00:19:08.674Z,0
2017-01-21T00:20:18.532Z,0
2017-01-21T00:21:28.426Z,0
2017-01-21T00:22:38.714Z,0
2017-01-21T00:23:48.583Z,0
2017-01-21T00:24:58.890Z,0
2017-01-21T00:26:09.165Z,0
2017-01-21T00:27:18.614Z,0
2017-01-21T00:28:28.914Z,0
2017-01-21T00:29:39.239Z,0
2017-01-21T00:30:49.107Z,0
2017-01-21T00:31:59.437Z,0
2017-01-21T00:33:09.336Z,0
2017-01-21T00:34:19.210Z,0
2017-01-21T00:35:29.466Z,0
2017-01-21T00:36:39.749Z,0
2017-01-21T00:37:50.026Z,0
2017-01-21T00:39:00.371Z,0
2017-01-21T00:40:10.313Z,0
2017-01-21T00:41:20.576Z,0
2017-01-21T00:42:30.444Z,0
2017-01-21T00:43:40.777Z,0
2017-01-21T00:44:51.042Z,0
2017-01-21T00:46:00.924Z,0
2017-01-21T00:47:10.773Z,0
2017-01-21T00:48:21.061Z,0
2017-01-21T00:49:31.377Z,0
2017-01-21T00:50:41.319Z,0
2017-01-21T00:51:51.204Z,0
2017-01-21T00:53:01.057Z,0
2017-01-21T00:54:10.932Z,0
2017-01-21T00:55:21.197Z,0
2017-01-21T00:56:31.525Z,0
2017-01-21T00:57:41.385Z,0
2017-01-21T00:58:51.740Z,0
2017-01-21T01:00:02.036Z,0
2017-01-21T01:01:12.307Z,0
2017-01-21T01:02:22.589Z,0
2017-01-21T01:03:32.875Z,0
2017-01-21T01:04:42.758Z,0
2017-01-21T01:05:53.080Z,0
2017-01-21T01:07:03.377Z,0
2017-01-21T01:08:13.387Z,0
2017-01-21T01:09:22.870Z,0
2017-01-21T01:10:33.253Z,0
2017-01-21T01:11:43.579Z,0
2017-01-21T01:12:53.442Z,0
2017-01-21T01:14:03.388Z,0
2017-01-21T01:15:13.692Z,0
2017-01-21T01:16:23.961Z,0
2017-01-21T01:17:34.292Z,0
2017-01-21T01:18:44.591Z,0
2017-01-21T01:19:54.876Z,0
2017-01-21T01:21:05.143Z,0
2017-01-21T01:22:14.619Z,0
2017-01-21T01:23:24.921Z,0
2017-01-21T01:24:35.196Z,0
2017-01-21T01:25:45.061Z,0
2017-01-21T01:26:55.394Z,0
2017-01-21T01:28:05.250Z,0
2017-01-21T01:29:15.519Z,0
2017-01-21T01:30:25.794Z,0
2017-01-21T01:31:36.151Z,0
2017-01-21T01:32:46.412Z,0
2017-01-21T01:33:56.682Z,0
2017-01-21T01:35:07.011Z,0
2017-01-21T01:36:16.923Z,0
2017-01-21T01:37:26.447Z,0
2017-01-21T01:38:36.712Z,0
2017-01-21T01:39:47.012Z,0
2017-01-21T01:40:56.975Z,0
2017-01-21T01:42:06.431Z,0
2017-01-21T01:43:16.851Z,0
2017-01-21T01:44:26.303Z,0
2017-01-21T01:45:36.569Z,0
2017-01-21T01:46:46.897Z,0
2017-01-21T01:47:56.854Z,0
2017-01-21T01:49:07.139Z,0
2017-01-21T01:50:16.980Z,0
2017-01-21T01:51:26.844Z,0
2017-01-21T01:52:36.703Z,0
2017-01-21T01:53:46.690Z,0
2017-01-21T01:54:56.164Z,0
2017-01-21T01:56:05.788Z,0
2017-01-21T01:57:16.057Z,0
2017-01-21T01:58:25.935Z,0
2017-01-21T01:59:36.226Z,0
2017-01-21T02:00:46.152Z,0
2017-01-21T02:01:56.424Z,0
2017-01-21T02:03:06.681Z,0
2017-01-21T02:04:16.203Z,0
2017-01-21T02:05:26.168Z,0
2017-01-21T02:06:36.069Z,0
2017-01-21T02:07:46.348Z,0
2017-01-21T02:08:56.658Z,0
2017-01-21T02:10:07.084Z,0
2017-01-21T02:11:17.062Z,0
2017-01-21T02:12:27.321Z,0
2017-01-21T02:13:37.675Z,0
2017-01-21T02:14:47.543Z,0
2017-01-21T02:15:57.869Z,0
2017-01-21T02:17:06.942Z,0
2017-01-21T02:18:16.861Z,0
2017-01-21T02:19:27.144Z,0
2017-01-21T02:20:37.080Z,0
2017-01-21T02:21:46.948Z,0
2017-01-21T02:22:57.221Z,0
2017-01-21T02:24:07.471Z,0
2017-01-21T02:25:16.935Z,0
2017-01-21T02:26:26.413Z,0
2017-01-21T02:27:36.708Z,0
2017-01-21T02:28:46.577Z,0
2017-01-21T02:29:56.842Z,0
2017-01-21T02:31:07.126Z,0
2017-01-21T02:32:17.414Z,0
2017-01-21T02:33:27.695Z,0
2017-01-21T02:34:37.979Z,0
2017-01-21T02:35:48.327Z,0
2017-01-21T02:36:58.627Z,0
2017-01-21T02:38:08.475Z,0
2017-01-21T02:39:18.760Z,0
2017-01-21T02:40:28.634Z,0
2017-01-21T02:41:38.576Z,0
2017-01-21T02:42:48.427Z,0
2017-01-21T02:43:57.973Z,0
2017-01-21T02:45:07.844Z,0
2017-01-21T02:46:18.126Z,0
2017-01-21T02:47:28.410Z,0
2017-01-21T02:48:38.337Z,0
2017-01-21T02:49:48.594Z,0
2017-01-21T02:50:58.081Z,0
2017-01-21T02:52:08.351Z,0
2017-01-21T02:53:18.255Z,0
2017-01-21T02:54:28.515Z,0
2017-01-21T02:55:38.798Z,0
2017-01-21T02:56:49.121Z,0
2017-01-21T02:57:59.001Z,0
2017-01-21T02:59:09.296Z,0
2017-01-21T03:00:19.580Z,0
2017-01-21T03:01:29.867Z,0
2017-01-21T03:02:40.283Z,0
2017-01-21T03:03:50.597Z,0
2017-01-21T03:05:00.476Z,0
2017-01-21T03:06:10.846Z,0
2017-01-21T03:07:20.707Z,0
2017-01-21T03:08:30.560Z,0
2017-01-21T03:09:40.843Z,0
2017-01-21T03:10:51.194Z,0
2017-01-21T03:12:01.060Z,0
2017-01-21T03:13:10.931Z,0
2017-01-21T03:14:20.819Z,0
2017-01-21T03:15:31.071Z,0
2017-01-21T03:16:41.437Z,0
2017-01-21T03:17:51.727Z,0
2017-01-21T03:19:02.070Z,0
2017-01-21T03:20:11.942Z,0
2017-01-21T03:21:22.356Z,0
2017-01-21T03:22:32.637Z,0
2017-01-21T03:23:42.105Z,0
2017-01-21T03:24:52.383Z,0
2017-01-21T03:26:02.642Z,0
2017-01-21T03:27:12.093Z,0
2017-01-21T03:28:21.554Z,0
2017-01-21T03:29:31.969Z,0
2017-01-21T03:30:42.247Z,0
2017-01-21T03:31:52.500Z,0
2017-01-21T03:33:02.931Z,0
2017-01-21T03:34:13.341Z,0
2017-01-21T03:35:23.600Z,0
2017-01-21T03:36:33.519Z,0
2017-01-21T03:37:43.795Z,0
2017-01-21T03:38:54.053Z,0
2017-01-21T03:40:04.346Z,0
2017-01-21T03:41:14.673Z,0
2017-01-21T03:42:24.928Z,0
2017-01-21T03:43:34.449Z,0
2017-01-21T03:44:44.332Z,0
2017-01-21T03:45:54.631Z,0
2017-01-21T03:47:04.919Z,0
2017-01-21T03:48:15.176Z,0
2017-01-21T03:49:25.086Z,0
2017-01-21T03:50:35.337Z,0
2017-01-21T03:51:45.750Z,0
2017-01-21T03:52:56.007Z,0
2017-01-21T03:54:06.256Z,0
2017-01-21T03:55:16.518Z,0
2017-01-21T03:56:25.968Z,0
2017-01-21T03:57:35.896Z,0
2017-01-21T03:58:46.146Z,0
2017-01-21T03:59:56.134Z,0
2017-01-21T04:01:06.450Z,0
2017-01-21T04:02:16.867Z,0
2017-01-21T04:03:26.721Z,0
2017-01-21T04:04:36.975Z,0
2017-01-21T04:05:47.253Z,0
2017-01-21T04:06:57.103Z,0
2017-01-21T04:08:06.985Z,0
2017-01-21T04:09:16.863Z,0
2017-01-21T04:10:27.185Z,0
2017-01-21T04:11:37.059Z,0
2017-01-21T04:12:46.548Z,0
2017-01-21T04:13:56.795Z,0
2017-01-21T04:15:07.070Z,0
2017-01-21T04:16:17.334Z,0
2017-01-21T04:17:27.603Z,0
2017-01-21T04:18:37.451Z,0
2017-01-21T04:19:46.946Z,0
2017-01-21T04:20:56.802Z,0
2017-01-21T04:22:07.161Z,0
2017-01-21T04:23:17.020Z,0
2017-01-21T04:24:27.279Z,0
2017-01-21T04:25:37.138Z,0
2017-01-21T04:26:46.994Z,0
2017-01-21T04:27:57.299Z,0
2017-01-21T04:29:07.549Z,0
2017-01-21T04:30:17.417Z,0
2017-01-21T04:31:27.325Z,0
2017-01-21T04:32:37.256Z,0
2017-01-21T04:33:46.728Z,0
2017-01-21T04:34:56.985Z,0
2017-01-21T04:36:06.865Z,0
2017-01-21T04:37:16.727Z,0
2017-01-21T04:38:26.593Z,0
2017-01-21T04:39:36.850Z,0
2017-01-21T04:40:46.725Z,0
2017-01-21T04:41:57.020Z,0
2017-01-21T04:43:07.295Z,0
2017-01-21T04:44:17.681Z,0
2017-01-21T04:45:28.034Z,0
2017-01-21T04:46:37.969Z,0
2017-01-21T04:47:48.230Z,0
2017-01-21T04:48:58.088Z,0
2017-01-21T04:50:08.359Z,0
2017-01-21T04:51:18.297Z,0
2017-01-21T04:52:28.608Z,0
2017-01-21T04:53:38.873Z,0
2017-01-21T04:54:49.188Z,0
2017-01-21T04:55:59.549Z,0
2017-01-21T04:57:09.434Z,0
2017-01-21T04:58:19.828Z,0
2017-01-21T04:59:30.115Z,0
2017-01-21T05:00:40.415Z,0
2017-01-21T05:01:50.697Z,0
2017-01-21T05:03:00.567Z,0
2017-01-21T05:04:10.844Z,0
2017-01-21T05:05:21.106Z,0
2017-01-21T05:06:30.966Z,0
2017-01-21T05:07:41.293Z,0
2017-01-21T05:08:51.600Z,0
2017-01-21T05:10:01.900Z,0
2017-01-21T05:11:12.252Z,0
2017-01-21T05:12:21.743Z,0
2017-01-21T05:13:32.073Z,0
2017-01-21T05:14:42.362Z,0
2017-01-21T05:15:52.651Z,0
2017-01-21T05:17:02.924Z,0
2017-01-21T05:18:13.268Z,0
2017-01-21T05:19:23.705Z,0
2017-01-21T05:20:33.150Z,0
2017-01-21T05:21:43.026Z,0
2017-01-21T05:22:53.293Z,0
2017-01-21T05:24:03.598Z,0
2017-01-21T05:25:13.848Z,0
2017-01-21T05:26:24.314Z,0
2017-01-21T05:27:34.200Z,0
2017-01-21T05:28:44.093Z,0
2017-01-21T05:29:54.353Z,0
2017-01-21T05:31:04.298Z,0
2017-01-21T05:32:14.563Z,0
2017-01-21T05:33:24.022Z,0
2017-01-21T05:34:34.316Z,0
2017-01-21T05:35:44.607Z,0
2017-01-21T05:36:54.086Z,0
2017-01-21T05:38:04.355Z,0
2017-01-21T05:39:14.678Z,0
2017-01-21T05:40:24.552Z,0
2017-01-21T05:41:34.443Z,0
2017-01-21T05:42:44.767Z,0
2017-01-21T05:43:54.616Z,0
2017-01-21T05:45:04.483Z,0
2017-01-21T05:46:14.765Z,0
2017-01-21T05:47:25.030Z,0
2017-01-21T05:48:35.020Z,0
2017-01-21T05:49:44.499Z,0
2017-01-21T05:50:54.748Z,0
2017-01-21T05:52:05.010Z,0
2017-01-21T05:53:15.312Z,0
2017-01-21T05:54:24.940Z,0
2017-01-21T05:55:34.816Z,0
2017-01-21T05:56:45.083Z,0
2017-01-21T05:57:55.403Z,0
2017-01-21T05:59:05.699Z,0
2017-01-21T06:00:14.765Z,0
2017-01-21T06:01:25.023Z,0
2017-01-21T06:02:34.878Z,0
2017-01-21T06:03:44.736Z,0
2017-01-21T06:04:55.015Z,0
2017-01-21T06:06:05.324Z,0
2017-01-21T06:07:15.616Z,0
2017-01-21T06:08:25.122Z,0
2017-01-21T06:09:35.014Z,0
2017-01-21T06:10:44.892Z,0
2017-01-21T06:11:55.183Z,0
2017-01-21T06:13:04.711Z,0
2017-01-21T06:14:14.977Z,0
2017-01-21T06:15:25.243Z,0
2017-01-21T06:16:34.704Z,0
2017-01-21T06:17:45.001Z,0
2017-01-21T06:18:55.295Z,0
2017-01-21T06:20:05.540Z,0
2017-01-21T06:21:15.395Z,0
2017-01-21T06:22:25.262Z,0
2017-01-21T06:23:35.561Z,0
2017-01-21T06:24:45.811Z,0
2017-01-21T06:25:55.685Z,0
2017-01-21T06:27:05.951Z,0
2017-01-21T06:28:15.859Z,0
2017-01-21T06:29:26.131Z,0
2017-01-21T06:30:36.021Z,0
2017-01-21T06:31:46.320Z,0
2017-01-21T06:32:55.790Z,0
2017-01-21T06:34:05.737Z,0
2017-01-21T06:35:15.217Z,0
2017-01-21T06:36:25.255Z,0
2017-01-21T06:37:35.116Z,0
2017-01-21T06:38:45.467Z,0
2017-01-21T06:39:55.714Z,0
2017-01-21T06:41:05.733Z,0
2017-01-21T06:42:16.025Z,0
2017-01-21T06:43:26.354Z,0
2017-01-21T06:44:36.651Z,0
2017-01-21T06:45:46.893Z,0
2017-01-21T06:46:57.171Z,0
2017-01-21T06:48:07.499Z,0
2017-01-21T06:49:17.387Z,0
2017-01-21T06:50:27.723Z,0
2017-01-21T06:51:37.254Z,0
2017-01-21T06:52:47.122Z,0
2017-01-21T06:53:57.003Z,0
2017-01-21T06:55:07.272Z,0
2017-01-21T06:56:17.128Z,0
2017-01-21T06:57:27.395Z,0
2017-01-21T06:58:37.670Z,0
2017-01-21T06:59:47.549Z,0
2017-01-21T07:00:57.409Z,0
2017-01-21T07:02:07.292Z,0
2017-01-21T07:03:17.602Z,0
2017-01-21T07:04:27.901Z,0
2017-01-21T07:05:38.174Z,0
2017-01-21T07:06:48.040Z,0
2017-01-21T07:07:57.960Z,0
2017-01-21T07:09:07.496Z,5
2017-01-21T07:10:17.796Z,5
2017-01-21T07:11:28.140Z,5
2017-01-21T07:12:38.440Z,5
2017-01-21T07:13:48.381Z,5
2017-01-21T07:14:57.841Z,5
2017-01-21T07:16:07.725Z,5
2017-01-21T07:17:18.276Z,5
2017-01-21T07:18:28.169Z,5
2017-01-21T07:19:38.027Z,10
2017-01-21T07:20:48.286Z,10
2017-01-21T07:21:58.553Z,10
2017-01-21T07:23:08.801Z,10
2017-01-21T07:24:18.677Z,10
2017-01-21T07:25:28.641Z,10
2017-01-21T07:26:38.139Z,10
2017-01-21T07:27:48.011Z,15
2017-01-21T07:28:58.280Z,15
2017-01-21T07:30:07.354Z,15
2017-01-21T07:31:17.726Z,15
2017-01-21T07:32:28.006Z,15
2017-01-21T07:33:37.920Z,15
2017-01-21T07:34:47.847Z,20
2017-01-21T07:35:58.234Z,20
2017-01-21T07:37:08.528Z,20
2017-01-21T07:38:18.808Z,20
2017-01-21T07:39:29.070Z,20
2017-01-21T07:40:38.939Z,25
2017-01-21T07:41:49.186Z,25
2017-01-21T07:42:59.070Z,25
2017-01-21T07:44:09.352Z,25
2017-01-21T07:45:19.628Z,25
2017-01-21T07:46:29.496Z,25
2017-01-21T07:47:39.365Z,25
2017-01-21T07:48:49.767Z,30
2017-01-21T07:49:59.650Z,30
2017-01-21T07:51:10.119Z,30
2017-01-21T07:52:19.985Z,30
2017-01-21T07:53:29.958Z,30
2017-01-21T07:54:39.842Z,35
2017-01-21T07:55:50.119Z,35
2017-01-21T07:57:00.381Z,35
2017-01-21T07:58:10.282Z,35
2017-01-21T07:59:20.622Z,35
2017-01-21T08:00:30.606Z,40
2017-01-21T08:01:40.871Z,40
2017-01-21T08:02:50.344Z,40
2017-01-21T08:03:59.805Z,40
2017-01-21T08:05:09.773Z,40
2017-01-21T08:06:19.739Z,45
2017-01-21T08:07:29.606Z,50
2017-01-21T08:08:39.478Z,50
2017-01-21T08:09:49.355Z,50
2017-01-21T08:10:59.737Z,55
2017-01-21T08:12:09.994Z,55
2017-01-21T08:13:19.478Z,55
2017-01-21T08:14:29.388Z,55
2017-01-21T08:15:39.655Z,55
2017-01-21T08:16:49.936Z,60
2017-01-21T08:17:59.846Z,60
2017-01-21T08:19:09.311Z,60
2017-01-21T08:20:19.592Z,60
2017-01-21T08:21:29.483Z,65
2017-01-21T08:22:39.754Z,65
2017-01-21T08:23:50.010Z,65
2017-01-21T08:25:00.271Z,70
2017-01-21T08:26:10.213Z,70
2017-01-21T08:27:20.072Z,70
2017-01-21T08:28:30.339Z,70
2017-01-21T08:29:40.695Z,70
2017-01-21T08:30:50.566Z,70
2017-01-21T08:32:00.086Z,70
2017-01-21T08:33:10.398Z,70
2017-01-21T08:34:20.757Z,70
2017-01-21T08:35:31.142Z,70
2017-01-21T08:36:41.406Z,70
2017-01-21T08:37:51.769Z,70
2017-01-21T08:39:01.317Z,75
2017-01-21T08:40:10.839Z,75
2017-01-21T08:41:20.715Z,80
2017-01-21T08:42:30.620Z,80
2017-01-21T08:43:40.916Z,80
2017-01-21T08:44:50.862Z,80
2017-01-21T08:46:01.135Z,80
2017-01-21T08:47:10.986Z,80
2017-01-21T08:48:21.255Z,80
2017-01-21T08:49:31.538Z,80
2017-01-21T08:50:41.458Z,80
2017-01-21T08:51:51.838Z,80
2017-01-21T08:53:01.916Z,85
2017-01-21T08:54:11.809Z,85
2017-01-21T08:55:22.261Z,85
2017-01-21T08:56:32.134Z,85
2017-01-21T08:57:41.609Z,90
2017-01-21T08:58:51.962Z,90
2017-01-21T09:00:02.230Z,90
2017-01-21T09:01:12.129Z,95
2017-01-21T09:02:22.401Z,95
2017-01-21T09:03:32.719Z,95
2017-01-21T09:04:42.578Z,95
2017-01-21T09:05:52.111Z,95
2017-01-21T09:07:02.475Z,95
2017-01-21T09:08:12.348Z,100
2017-01-21T09:09:22.240Z,100
2017-01-21T09:10:32.113Z,105
2017-01-21T09:11:42.386Z,105
2017-01-21T09:12:52.258Z,110
2017-01-21T09:14:02.125Z,110
2017-01-21T09:15:12.409Z,110
2017-01-21T09:16:22.747Z,115
2017-01-21T09:17:33.092Z,120
2017-01-21T09:18:43.155Z,125
2017-01-21T09:19:53.434Z,130
2017-01-21T09:21:02.929Z,135
2017-01-21T09:22:13.191Z,135
2017-01-21T09:23:23.449Z,140
2017-01-21T09:24:33.928Z,140
2017-01-21T09:25:43.811Z,150
2017-01-21T09:26:53.699Z,160
2017-01-21T09:28:04.019Z,170
2017-01-21T09:29:14.329Z,175
2017-01-21T09:30:24.637Z,185
2017-01-21T09:31:34.525Z,195
2017-01-21T09:32:44.004Z,195
2017-01-21T09:33:53.920Z,185
2017-01-21T09:35:03.385Z,195
2017-01-21T09:36:12.870Z,215
2017-01-21T09:37:23.142Z,245
2017-01-21T09:38:33.476Z,265
2017-01-21T09:39:43.348Z,265
2017-01-21T09:40:52.480Z,260
2017-01-21T09:42:02.805Z,245
2017-01-21T09:43:12.682Z,230
2017-01-21T09:44:22.973Z,215
2017-01-21T09:45:33.271Z,210
2017-01-21T09:46:42.744Z,230
2017-01-21T09:47:53.096Z,255
2017-01-21T09:49:03.405Z,285
2017-01-21T09:50:13.678Z,295
2017-01-21T09:51:22.735Z,295
2017-01-21T09:52:32.712Z,285
2017-01-21T09:53:42.978Z,300
2017-01-21T09:54:53.380Z,325
2017-01-21T09:56:03.253Z,350
2017-01-21T09:57:13.589Z,360
2017-01-21T09:58:23.476Z,350
2017-01-21T09:59:33.786Z,335
2017-01-21T10:00:43.381Z,330
2017-01-21T10:01:53.665Z,320
2017-01-21T10:03:03.948Z,300
2017-01-21T10:04:13.854Z,285
2017-01-21T10:05:23.771Z,275
2017-01-21T10:06:34.094Z,275
2017-01-21T10:07:44.364Z,280
2017-01-21T10:08:54.625Z,285
2017-01-21T10:10:04.889Z,285
2017-01-21T10:11:15.214Z,275
2017-01-21T10:12:25.152Z,270
2017-01-21T10:13:34.998Z,275
2017-01-21T10:14:45.273Z,290
2017-01-21T10:15:54.746Z,310
2017-01-21T10:17:05.340Z,325
2017-01-21T10:18:15.637Z,330
2017-01-21T10:19:25.908Z,345
2017-01-21T10:20:35.769Z,355
2017-01-21T10:21:46.040Z,345
2017-01-21T10:22:55.962Z,345
2017-01-21T10:24:05.829Z,350
2017-01-21T10:25:16.186Z,360
2017-01-21T10:26:26.470Z,365
2017-01-21T10:27:36.817Z,355
2017-01-21T10:28:47.213Z,350
2017-01-21T10:29:57.528Z,345
2017-01-21T10:31:07.799Z,345
2017-01-21T10:32:18.072Z,365
2017-01-21T10:33:27.923Z,380
2017-01-21T10:34:38.228Z,415
2017-01-21T10:35:48.081Z,430
2017-01-21T10:36:58.023Z,430
2017-01-21T10:38:08.293Z,425
2017-01-21T10:39:18.162Z,415
2017-01-21T10:40:28.206Z,400
2017-01-21T10:41:38.482Z,385
2017-01-21T10:42:48.410Z,380
2017-01-21T10:43:58.310Z,365
2017-01-21T10:45:08.176Z,365
2017-01-21T10:46:18.511Z,380
2017-01-21T10:47:27.972Z,400
2017-01-21T10:48:38.298Z,410
2017-01-21T10:49:48.588Z,425
2017-01-21T10:50:58.866Z,435
2017-01-21T10:52:08.387Z,435
2017-01-21T10:53:18.720Z,430
2017-01-21T10:54:29.022Z,420
2017-01-21T10:55:38.524Z,410
2017-01-21T10:56:48.784Z,410
2017-01-21T10:57:59.033Z,425
2017-01-21T10:59:09.322Z,430
2017-01-21T11:00:19.638Z,430
2017-01-21T11:01:29.908Z,425
2017-01-21T11:02:40.189Z,400
2017-01-21T11:03:50.521Z,385
2017-01-21T11:05:00.402Z,385
2017-01-21T11:06:10.663Z,385
2017-01-21T11:07:20.520Z,405
2017-01-21T11:08:30.842Z,420
2017-01-21T11:09:41.135Z,420
2017-01-21T11:10:51.447Z,420
2017-01-21T11:12:01.851Z,410
2017-01-21T11:13:12.248Z,400
2017-01-21T11:14:22.164Z,410
2017-01-21T11:15:32.502Z,430
2017-01-21T11:16:41.994Z,435
2017-01-21T11:17:51.937Z,445
2017-01-21T11:19:01.503Z,435
2017-01-21T11:20:11.784Z,420
2017-01-21T11:21:22.064Z,435
2017-01-21T11:22:32.518Z,450
2017-01-21T11:23:42.824Z,445
2017-01-21T11:24:52.695Z,435
2017-01-21T11:26:02.979Z,425
2017-01-21T11:27:13.321Z,425
2017-01-21T11:28:23.715Z,410
2017-01-21T11:29:33.220Z,410
2017-01-21T11:30:43.122Z,415
2017-01-21T11:31:53.072Z,405
2017-01-21T11:33:02.995Z,405
2017-01-21T11:34:13.082Z,415
2017-01-21T11:35:22.994Z,425
2017-01-21T11:36:33.304Z,440
2017-01-21T11:37:43.621Z,475
2017-01-21T11:38:53.931Z,510
2017-01-21T11:40:04.208Z,510
2017-01-21T11:41:14.119Z,500
2017-01-21T11:42:24.087Z,515
2017-01-21T11:43:34.430Z,505
2017-01-21T11:44:44.714Z,480
2017-01-21T11:45:55.015Z,485
2017-01-21T11:47:05.326Z,485
2017-01-21T11:48:15.599Z,500
2017-01-21T11:49:25.291Z,500
2017-01-21T11:50:35.634Z,475
2017-01-21T11:51:45.960Z,480
2017-01-21T11:52:56.248Z,480
2017-01-21T11:54:06.582Z,475
2017-01-21T11:55:16.972Z,475
2017-01-21T11:56:27.281Z,475
2017-01-21T11:57:37.605Z,520
2017-01-21T11:58:47.499Z,515
2017-01-21T11:59:56.992Z,510
2017-01-21T12:01:06.906Z,500
2017-01-21T12:02:17.282Z,470
2017-01-21T12:03:27.188Z,460
2017-01-21T12:04:37.495Z,485
2017-01-21T12:05:47.798Z,500
2017-01-21T12:06:57.285Z,490
2017-01-21T12:08:07.607Z,505
2017-01-21T12:09:17.495Z,515
2017-01-21T12:10:27.387Z,490
2017-01-21T12:11:37.296Z,460
2017-01-21T12:12:47.307Z,460
2017-01-21T12:13:57.680Z,455
2017-01-21T12:15:07.885Z,455
2017-01-21T12:16:18.209Z,460
2017-01-21T12:17:28.184Z,485
2017-01-21T12:18:37.841Z,490
2017-01-21T12:19:48.172Z,515
2017-01-21T12:20:58.260Z,500
2017-01-21T12:22:08.193Z,460
2017-01-21T12:23:18.156Z,440
2017-01-21T12:24:28.121Z,440
2017-01-21T12:25:38.425Z,430
2017-01-21T12:26:48.728Z,415
2017-01-21T12:27:59.168Z,390
2017-01-21T12:29:09.456Z,370
2017-01-21T12:30:19.991Z,365
2017-01-21T12:31:30.008Z,370
2017-01-21T12:32:40.300Z,375
2017-01-21T12:33:49.785Z,385
2017-01-21T12:34:59.277Z,395
2017-01-21T12:36:09.183Z,385
2017-01-21T12:37:18.741Z,380
2017-01-21T12:38:29.069Z,360
2017-01-21T12:39:39.684Z,350
2017-01-21T12:40:50.109Z,355
2017-01-21T12:42:01.127Z,345
2017-01-21T12:43:11.615Z,365
2017-01-21T12:44:21.594Z,380
2017-01-21T12:45:31.974Z,375
2017-01-21T12:46:41.918Z,360
2017-01-21T12:47:52.319Z,360
2017-01-21T12:49:01.851Z,365
2017-01-21T12:50:11.842Z,355
2017-01-21T12:51:22.172Z,340
2017-01-21T12:52:32.062Z,355
2017-01-21T12:53:42.405Z,365
2017-01-21T12:54:52.320Z,370
2017-01-21T12:56:02.291Z,355
2017-01-21T12:57:12.583Z,335
2017-01-21T12:58:22.888Z,335
2017-01-21T12:59:33.204Z,350
2017-01-21T13:00:42.804Z,350
2017-01-21T13:01:53.183Z,335
2017-01-21T13:03:02.261Z,350
2017-01-21T13:04:12.173Z,360
2017-01-21T13:05:22.673Z,350
2017-01-21T13:06:32.948Z,355
2017-01-21T13:07:42.421Z,360
2017-01-21T13:08:52.702Z,345
2017-01-21T13:10:02.605Z,320
2017-01-21T13:11:13.073Z,310
2017-01-21T13:12:23.425Z,305
2017-01-21T13:13:33.759Z,310
2017-01-21T13:14:44.048Z,330
2017-01-21T13:15:54.431Z,330
2017-01-21T13:17:04.770Z,340
2017-01-21T13:18:14.758Z,340
2017-01-21T13:19:25.056Z,335
2017-01-21T13:20:35.353Z,320
2017-01-21T13:21:45.648Z,300
2017-01-21T13:22:56.030Z,300
2017-01-21T13:24:06.394Z,295
2017-01-21T13:25:16.280Z,295
2017-01-21T13:26:26.028Z,300
2017-01-21T13:27:36.703Z,295
2017-01-21T13:28:46.613Z,300
2017-01-21T13:29:56.888Z,290
2017-01-21T13:31:06.375Z,285
2017-01-21T13:32:16.728Z,290
2017-01-21T13:33:26.603Z,315
2017-01-21T13:34:37.014Z,325
2017-01-21T13:35:47.306Z,320
2017-01-21T13:36:57.230Z,300
2017-01-21T13:38:07.519Z,300
2017-01-21T13:39:17.402Z,310
2017-01-21T13:40:27.708Z,315
2017-01-21T13:41:37.616Z,320
2017-01-21T13:42:46.723Z,305
2017-01-21T13:43:56.625Z,290
2017-01-21T13:45:06.955Z,290
2017-01-21T13:46:17.281Z,305
2017-01-21T13:47:27.632Z,295
2017-01-21T13:48:37.326Z,280
2017-01-21T13:49:47.650Z,265
2017-01-21T13:50:57.928Z,275
2017-01-21T13:52:08.235Z,275
2017-01-21T13:53:18.122Z,260
2017-01-21T13:54:27.619Z,265
2017-01-21T13:55:37.985Z,275
2017-01-21T13:56:48.325Z,275
2017-01-21T13:57:57.804Z,280
2017-01-21T13:59:08.127Z,260
2017-01-21T14:00:18.008Z,250
2017-01-21T14:01:27.973Z,260
2017-01-21T14:02:38.341Z,270
2017-01-21T14:03:48.654Z,275
2017-01-21T14:04:58.568Z,270
2017-01-21T14:06:08.542Z,265
2017-01-21T14:07:18.483Z,250
2017-01-21T14:08:28.834Z,255
2017-01-21T14:09:38.463Z,250
2017-01-21T14:10:48.773Z,245
2017-01-21T14:11:59.108Z,220
2017-01-21T14:13:09.679Z,220
2017-01-21T14:14:19.645Z,210
2017-01-21T14:15:29.944Z,210
2017-01-21T14:16:40.284Z,210
2017-01-21T14:17:50.217Z,205
2017-01-21T14:19:00.501Z,200
2017-01-21T14:20:10.798Z,200
2017-01-21T14:21:20.710Z,200
2017-01-21T14:22:31.039Z,200
2017-01-21T14:23:40.932Z,220
2017-01-21T14:24:50.820Z,215
2017-01-21T14:26:00.318Z,205
2017-01-21T14:27:10.642Z,200
2017-01-21T14:28:20.972Z,195
2017-01-21T14:29:30.904Z,185
2017-01-21T14:30:41.251Z,175
2017-01-21T14:31:51.600Z,180
2017-01-21T14:33:01.518Z,175
2017-01-21T14:34:11.448Z,170
2017-01-21T14:35:21.779Z,160
2017-01-21T14:36:32.125Z,150
2017-01-21T14:37:42.411Z,140
2017-01-21T14:38:52.814Z,140
2017-01-21T14:40:02.698Z,140
2017-01-21T14:41:12.648Z,135
2017-01-21T14:42:22.928Z,125
2017-01-21T14:43:33.259Z,130
2017-01-21T14:44:43.585Z,125
2017-01-21T14:45:53.557Z,120
2017-01-21T14:47:03.879Z,110
2017-01-21T14:48:14.244Z,110
2017-01-21T14:49:24.524Z,105
2017-01-21T14:50:34.047Z,105
2017-01-21T14:51:44.335Z,95
2017-01-21T14:52:53.862Z,95
2017-01-21T14:54:04.155Z,100
2017-01-21T14:55:14.059Z,95
2017-01-21T14:56:24.364Z,90
2017-01-21T14:57:34.694Z,90
2017-01-21T14:58:44.648Z,90
2017-01-21T14:59:54.521Z,90
2017-01-21T15:01:04.444Z,85
2017-01-21T15:02:14.768Z,75
2017-01-21T15:03:24.664Z,75
2017-01-21T15:04:34.561Z,70
2017-01-21T15:05:44.912Z,70
2017-01-21T15:06:55.298Z,70
2017-01-21T15:08:05.676Z,65
2017-01-21T15:09:15.563Z,60
2017-01-21T15:10:25.861Z,60
2017-01-21T15:11:36.196Z,60
2017-01-21T15:12:46.092Z,55
2017-01-21T15:13:56.536Z,55
2017-01-21T15:15:06.465Z,50
2017-01-21T15:16:16.365Z,45
2017-01-21T15:17:26.656Z,45
2017-01-21T15:18:36.962Z,40
2017-01-21T15:19:47.317Z,40
2017-01-21T15:20:57.229Z,40
2017-01-21T15:22:07.522Z,35
2017-01-21T15:23:17.914Z,35
2017-01-21T15:24:28.225Z,35
2017-01-21T15:25:37.733Z,30
2017-01-21T15:26:48.069Z,30
2017-01-21T15:27:58.405Z,25
2017-01-21T15:29:08.743Z,25
2017-01-21T15:30:19.029Z,25
2017-01-21T15:31:29.351Z,20
2017-01-21T15:32:39.675Z,20
2017-01-21T15:33:49.987Z,20
2017-01-21T15:35:00.295Z,20
2017-01-21T15:36:10.637Z,15
2017-01-21T15:37:20.650Z,15
2017-01-21T15:38:30.997Z,15
2017-01-21T15:39:41.299Z,10
2017-01-21T15:40:51.211Z,10
2017-01-21T15:42:01.554Z,10
2017-01-21T15:43:11.910Z,10
2017-01-21T15:44:22.352Z,5
2017-01-21T15:45:32.257Z,5
2017-01-21T15:46:42.593Z,5
2017-01-21T15:47:52.920Z,5
2017-01-21T15:49:02.787Z,5
2017-01-21T15:50:13.060Z,5
2017-01-21T15:51:22.965Z,5
2017-01-21T15:52:33.281Z,0
2017-01-21T15:53:43.606Z,0
2017-01-21T15:54:53.498Z,0
2017-01-21T15:56:03.414Z,0
2017-01-21T15:57:13.729Z,0
2017-01-21T15:58:24.213Z,0
2017-01-21T15:59:34.088Z,0
2017-01-21T16:00:44.415Z,0
2017-01-21T16:01:54.331Z,0
2017-01-21T16:03:04.661Z,0
2017-01-21T16:04:14.801Z,0
2017-01-21T16:05:24.773Z,0
2017-01-21T16:06:34.707Z,0
2017-01-21T16:07:44.227Z,0
2017-01-21T16:08:54.724Z,0
2017-01-21T16:10:04.641Z,0
2017-01-21T16:11:14.534Z,0
2017-01-21T16:12:24.867Z,0
2017-01-21T16:13:34.811Z,0
2017-01-21T16:14:45.164Z,0
2017-01-21T16:15:55.062Z,0
2017-01-21T16:17:05.373Z,0
2017-01-21T16:18:15.313Z,0
2017-01-21T16:19:24.861Z,0
2017-01-21T16:20:35.369Z,0
2017-01-21T16:21:45.975Z,0
2017-01-21T16:22:56.287Z,0
2017-01-21T16:24:06.197Z,0
2017-01-21T16:25:16.567Z,0
2017-01-21T16:26:26.905Z,0
2017-01-21T16:27:37.087Z,0
2017-01-21T16:28:47.418Z,0
2017-01-21T16:29:56.938Z,0
2017-01-21T16:31:39.015Z,0
2017-01-21T16:32:49.333Z,0
2017-01-21T16:33:59.289Z,0
2017-01-21T16:35:08.893Z,0
2017-01-21T16:36:18.803Z,0
2017-01-21T16:37:29.102Z,0
2017-01-21T16:38:39.452Z,0
2017-01-21T16:39:49.367Z,0
2017-01-21T16:40:59.298Z,0
2017-01-21T16:42:09.607Z,0
2017-01-21T16:43:20.022Z,0
2017-01-21T16:44:29.917Z,0
2017-01-21T16:45:40.292Z,0